createdAt,value
2023-01-17T00:02:28.539Z,1.63
2023-01-17T00:05:49.069Z,1.88
2023-01-17T00:09:09.757Z,2.33
2023-01-17T00:12:11.855Z,1.95
2023-01-17T00:15:14.281Z,2.55
2023-01-17T00:18:18.418Z,2.45
2023-01-17T00:21:39.009Z,3.63
2023-01-17T00:24:59.436Z,4.10
2023-01-17T00:28:02.065Z,2.50
2023-01-17T00:31:05.488Z,3.35
2023-01-17T00:34:07.443Z,3.20
2023-01-17T00:37:09.033Z,4.75
2023-01-17T00:40:11.210Z,4.35
2023-01-17T00:43:33.539Z,5.18
2023-01-17T00:46:54.841Z,4.93
2023-01-17T00:50:15.544Z,5.25
2023-01-17T00:53:36.252Z,6.32
2023-01-17T00:56:56.552Z,3.80
2023-01-17T01:00:16.932Z,3.42
2023-01-17T01:03:37.354Z,4.13
2023-01-17T01:06:57.573Z,3.35
2023-01-17T01:10:17.665Z,2.60
2023-01-17T01:13:41.070Z,2.03
2023-01-17T01:17:01.088Z,3.75
2023-01-17T01:20:21.420Z,3.77
2023-01-17T01:23:41.803Z,4.03
2023-01-17T01:27:02.061Z,4.78
2023-01-17T01:30:22.863Z,5.15
2023-01-17T01:33:24.594Z,6.97
2023-01-17T01:36:26.139Z,6.03
2023-01-17T01:39:28.246Z,5.40
2023-01-17T01:42:30.173Z,4.65
2023-01-17T01:45:33.736Z,4.50
2023-01-17T01:48:41.534Z,4.82
2023-01-17T01:51:49.703Z,4.53
2023-01-17T01:54:57.802Z,4.13
2023-01-17T01:58:04.438Z,4.00
2023-01-17T02:01:08.763Z,3.92
2023-01-17T02:04:11.155Z,5.13
2023-01-17T02:07:24.004Z,3.53
2023-01-17T02:10:25.730Z,3.17
2023-01-17T02:13:30.812Z,3.38
2023-01-17T02:16:47.958Z,2.97
2023-01-17T02:19:49.816Z,3.03
2023-01-17T02:22:57.382Z,2.40
2023-01-17T02:26:14.108Z,2.15
2023-01-17T02:29:53.448Z,3.58
2023-01-17T02:33:23.014Z,2.30
2023-01-17T02:36:36.398Z,3.22
2023-01-17T02:39:51.204Z,3.00
2023-01-17T02:43:02.578Z,3.45
2023-01-17T02:46:04.287Z,3.90
2023-01-17T02:49:06.195Z,4.63
2023-01-17T02:52:50.671Z,4.13
2023-01-17T02:56:03.022Z,3.28
2023-01-17T02:59:15.891Z,2.50
2023-01-17T03:02:40.642Z,2.72
2023-01-17T03:05:52.602Z,3.05
2023-01-17T03:08:54.657Z,2.85
2023-01-17T03:11:57.834Z,3.17
2023-01-17T03:14:59.509Z,2.80
2023-01-17T03:18:05.607Z,3.08
2023-01-17T03:21:08.517Z,2.33
2023-01-17T03:24:10.485Z,3.15
2023-01-17T03:27:12.421Z,2.28
2023-01-17T03:30:14.371Z,2.67
2023-01-17T03:33:19.511Z,4.35
2023-01-17T03:36:21.593Z,6.80
2023-01-17T03:39:23.412Z,3.88
2023-01-17T03:42:25.350Z,3.55
2023-01-17T03:45:27.364Z,3.15
2023-01-17T03:48:32.282Z,3.05
2023-01-17T03:51:34.424Z,2.60
2023-01-17T03:54:36.649Z,2.85
2023-01-17T03:57:38.576Z,2.58
2023-01-17T04:00:40.595Z,2.65
2023-01-17T04:03:42.266Z,3.17
2023-01-17T04:06:44.723Z,3.65
2023-01-17T04:09:46.637Z,2.83
2023-01-17T04:12:48.702Z,2.85
2023-01-17T04:15:51.474Z,3.58
2023-01-17T04:18:53.381Z,3.10
2023-01-17T04:21:55.357Z,4.93
2023-01-17T04:25:03.296Z,2.60
2023-01-17T04:28:06.536Z,2.55
2023-01-17T04:31:14.161Z,3.85
2023-01-17T04:34:17.641Z,1.67
2023-01-17T04:37:19.555Z,2.08
2023-01-17T04:40:21.379Z,1.83
2023-01-17T04:43:23.357Z,2.22
2023-01-17T04:46:26.237Z,2.75
2023-01-17T04:49:28.475Z,1.23
2023-01-17T04:52:30.617Z,1.65
2023-01-17T04:55:32.683Z,1.67
2023-01-17T04:58:34.635Z,1.40
2023-01-17T05:01:36.665Z,0.77
2023-01-17T05:04:38.693Z,1.08
2023-01-17T05:07:40.488Z,0.70
2023-01-17T05:10:42.268Z,1.25
2023-01-17T05:13:43.985Z,0.90
2023-01-17T05:16:45.848Z,0.50
2023-01-17T05:19:48.040Z,0.40
2023-01-17T05:22:57.225Z,1.75
2023-01-17T05:25:59.058Z,0.30
2023-01-17T05:29:00.862Z,0.20
2023-01-17T05:32:02.532Z,0.40
2023-01-17T05:35:04.528Z,0.70
2023-01-17T05:38:06.191Z,0.40
2023-01-17T05:41:07.889Z,0.77
2023-01-17T05:44:09.433Z,0.30
2023-01-17T05:47:11.376Z,0.43
2023-01-17T05:50:15.629Z,0.55
2023-01-17T05:53:17.368Z,0.68
2023-01-17T05:56:19.064Z,0.50
2023-01-17T05:59:35.946Z,0.50
2023-01-17T06:02:38.644Z,1.25
2023-01-17T06:05:40.555Z,0.40
2023-01-17T06:08:42.230Z,0.28
2023-01-17T06:11:44.036Z,0.30
2023-01-17T06:14:45.933Z,0.30
2023-01-17T06:17:47.617Z,0.55
2023-01-17T06:20:54.303Z,1.13
2023-01-17T06:23:55.873Z,1.55
2023-01-17T06:26:58.103Z,0.47
2023-01-17T06:29:59.696Z,3.70
2023-01-17T06:33:01.484Z,1.90
2023-01-17T06:36:03.958Z,0.45
2023-01-17T06:39:05.817Z,4.95
2023-01-17T06:42:07.569Z,0.80
2023-01-17T06:45:09.775Z,0.80
2023-01-17T06:48:11.592Z,2.50
2023-01-17T06:51:13.202Z,1.75
2023-01-17T06:54:15.146Z,0.38
2023-01-17T06:57:16.732Z,0.40
2023-01-17T07:00:18.742Z,0.77
2023-01-17T07:03:23.923Z,0.43
2023-01-17T07:06:28.781Z,0.70
2023-01-17T07:09:30.555Z,0.28
2023-01-17T07:12:32.534Z,0.57
2023-01-17T07:15:34.256Z,2.25
2023-01-17T07:18:36.228Z,0.40
2023-01-17T07:21:40.858Z,1.42
2023-01-17T07:24:42.587Z,1.67
2023-01-17T07:27:44.317Z,1.40
2023-01-17T07:30:46.238Z,1.25
2023-01-17T07:33:47.938Z,1.77
2023-01-17T07:36:49.810Z,2.20
2023-01-17T07:39:52.034Z,2.17
2023-01-17T07:42:53.938Z,2.28
2023-01-17T07:45:55.657Z,3.47
2023-01-17T07:48:57.384Z,1.17
2023-01-17T07:51:59.300Z,1.35
2023-01-17T07:55:01.105Z,2.22
2023-01-17T07:58:03.266Z,1.95
2023-01-17T08:01:08.299Z,4.90
2023-01-17T08:04:11.692Z,5.32
2023-01-17T08:07:14.080Z,3.13
2023-01-17T08:10:21.941Z,4.88
2023-01-17T08:13:23.889Z,2.30
2023-01-17T08:16:26.995Z,5.22
2023-01-17T08:19:28.762Z,3.05
2023-01-17T08:22:31.193Z,3.40
2023-01-17T08:25:35.040Z,3.85
2023-01-17T08:28:37.408Z,4.47
2023-01-17T08:31:39.288Z,6.03
2023-01-17T08:34:41.006Z,2.55
2023-01-17T08:37:42.781Z,2.53
2023-01-17T08:40:45.117Z,2.00
2023-01-17T08:43:48.523Z,2.47
2023-01-17T08:46:50.357Z,2.42
2023-01-17T08:49:52.727Z,1.60
2023-01-17T08:53:01.109Z,5.65
2023-01-17T08:56:05.189Z,3.53
2023-01-17T08:59:07.765Z,2.70
2023-01-17T09:02:15.700Z,4.30
2023-01-17T09:05:17.601Z,3.42
2023-01-17T09:08:19.722Z,4.35
2023-01-17T09:11:21.674Z,5.32
2023-01-17T09:14:23.506Z,1.80
2023-01-17T09:17:25.487Z,3.78
2023-01-17T09:20:30.194Z,3.67
2023-01-17T09:23:31.913Z,2.97
2023-01-17T09:26:33.982Z,5.15
2023-01-17T09:29:36.073Z,2.97
2023-01-17T09:32:38.002Z,5.65
2023-01-17T09:35:40.068Z,2.17
2023-01-17T09:38:42.198Z,4.90
2023-01-17T09:42:09.176Z,3.95
2023-01-17T09:45:18.197Z,3.97
2023-01-17T09:48:41.172Z,2.95
2023-01-17T09:51:43.276Z,6.38
2023-01-17T09:54:48.074Z,3.35
2023-01-17T09:58:12.055Z,1.80
2023-01-17T10:01:52.457Z,2.40
2023-01-17T10:05:08.515Z,3.53
2023-01-17T10:08:40.947Z,4.22
2023-01-17T10:11:54.995Z,2.22
2023-01-17T10:15:16.331Z,5.35
2023-01-17T10:18:43.247Z,4.90
2023-01-17T10:22:12.818Z,3.42
2023-01-17T10:25:33.210Z,3.33
2023-01-17T10:28:53.151Z,1.05
2023-01-17T10:32:01.997Z,4.90
2023-01-17T10:35:18.015Z,4.13
2023-01-17T10:38:25.589Z,1.52
2023-01-17T10:41:35.499Z,6.43
2023-01-17T10:44:50.751Z,2.45
2023-01-17T10:48:02.660Z,3.78
2023-01-17T10:51:25.956Z,4.00
2023-01-17T10:54:39.859Z,2.83
2023-01-17T10:57:44.080Z,1.40
2023-01-17T11:01:05.749Z,4.32
2023-01-17T11:04:21.182Z,2.80
2023-01-17T11:07:25.092Z,1.63
2023-01-17T11:10:57.325Z,4.20
2023-01-17T11:14:06.255Z,2.08
2023-01-17T11:17:09.703Z,7.32
2023-01-17T11:20:34.539Z,6.07
2023-01-17T11:23:36.558Z,2.40
2023-01-17T11:26:47.614Z,5.35
2023-01-17T11:30:06.326Z,1.58
2023-01-17T11:33:33.224Z,4.40
2023-01-17T11:36:35.085Z,2.00
2023-01-17T11:39:39.727Z,7.07
2023-01-17T11:42:41.687Z,7.10
2023-01-17T11:45:43.325Z,5.75
2023-01-17T11:48:53.972Z,2.53
2023-01-17T11:51:57.680Z,2.95
2023-01-17T11:54:59.902Z,7.40
2023-01-17T11:58:02.685Z,2.78
2023-01-17T12:01:35.371Z,2.65
2023-01-17T12:04:55.334Z,4.03
2023-01-17T12:07:58.624Z,4.38
2023-01-17T12:11:22.030Z,2.65
2023-01-17T12:15:03.709Z,3.70
2023-01-17T12:18:38.898Z,3.45
2023-01-17T12:22:29.428Z,2.95
2023-01-17T12:25:54.770Z,4.07
2023-01-17T12:29:27.449Z,3.28
2023-01-17T12:32:47.777Z,1.70
2023-01-17T12:36:03.311Z,10.18
2023-01-17T12:39:09.395Z,6.82
2023-01-17T12:42:18.553Z,4.60
2023-01-17T12:45:32.015Z,5.32
2023-01-17T12:48:39.614Z,4.00
2023-01-17T12:51:45.455Z,2.20
2023-01-17T12:54:55.647Z,4.47
2023-01-17T12:58:00.298Z,3.17
2023-01-17T13:01:12.665Z,2.97
2023-01-17T13:04:30.107Z,3.05
2023-01-17T13:07:57.877Z,5.03
2023-01-17T13:11:18.305Z,6.00
2023-01-17T13:14:20.220Z,3.47
2023-01-17T13:17:54.342Z,3.28
2023-01-17T13:21:29.474Z,7.07
2023-01-17T13:24:55.545Z,4.75
2023-01-17T13:28:22.797Z,8.32
2023-01-17T13:32:03.911Z,2.65
2023-01-17T13:35:11.948Z,5.15
2023-01-17T13:38:38.454Z,3.20
2023-01-17T13:49:43.436Z,4.93
2023-01-17T13:56:20.127Z,6.65
2023-01-17T13:59:29.395Z,4.50
2023-01-17T14:02:36.884Z,4.53
2023-01-17T14:05:38.518Z,6.40
2023-01-17T14:08:45.058Z,4.85
2023-01-17T14:12:11.241Z,8.70
2023-01-17T14:15:27.110Z,5.78
2023-01-17T14:18:44.020Z,4.53
2023-01-17T14:21:45.964Z,8.60
2023-01-17T14:25:12.254Z,5.43
2023-01-17T14:28:40.212Z,4.53
2023-01-17T14:31:42.595Z,12.40
2023-01-17T14:34:46.886Z,7.10
2023-01-17T14:37:52.223Z,6.90
2023-01-17T14:40:57.928Z,11.38
2023-01-17T14:44:00.957Z,7.07
2023-01-17T14:47:02.517Z,6.93
2023-01-17T14:50:11.824Z,7.15
2023-01-17T14:53:13.472Z,10.18
2023-01-17T14:56:22.845Z,7.00
2023-01-17T14:59:24.627Z,13.15
2023-01-17T15:02:27.090Z,9.23
2023-01-17T15:05:30.332Z,8.63
2023-01-17T15:08:36.504Z,8.77
2023-01-17T15:11:41.354Z,6.40
2023-01-17T15:14:45.733Z,8.15
2023-01-17T15:17:47.415Z,10.45
2023-01-17T15:21:01.412Z,8.80
2023-01-17T15:24:07.221Z,10.27
2023-01-17T15:27:16.244Z,9.20
2023-01-17T15:30:18.634Z,8.05
2023-01-17T15:33:21.482Z,10.98
2023-01-17T15:36:34.456Z,11.27
2023-01-17T15:39:39.020Z,11.02
2023-01-17T15:42:44.292Z,7.93
2023-01-17T15:45:58.264Z,9.25
2023-01-17T15:49:29.045Z,10.85
2023-01-17T15:52:30.924Z,10.45
2023-01-17T15:55:48.201Z,9.25
2023-01-17T15:58:50.311Z,9.73
2023-01-17T16:01:58.405Z,10.32
2023-01-17T16:05:02.585Z,12.95
2023-01-17T16:08:04.741Z,12.88
2023-01-17T16:11:08.325Z,11.65
2023-01-17T16:14:10.433Z,11.13
2023-01-17T16:17:17.318Z,10.75
2023-01-17T16:20:23.445Z,9.98
2023-01-17T16:23:25.819Z,11.18
2023-01-17T16:26:34.143Z,13.45
2023-01-17T16:29:35.778Z,10.50
2023-01-17T16:32:37.593Z,10.98
2023-01-17T16:35:43.483Z,10.38
2023-01-17T16:38:48.352Z,9.73
2023-01-17T16:41:50.035Z,10.35
2023-01-17T16:44:51.849Z,8.43
2023-01-17T16:47:54.549Z,15.13
2023-01-17T16:50:56.889Z,11.75
2023-01-17T16:53:59.632Z,10.60
2023-01-17T16:57:01.370Z,11.07
2023-01-17T17:00:05.290Z,8.63
2023-01-17T17:03:07.317Z,10.93
2023-01-17T17:06:09.587Z,9.10
2023-01-17T17:09:11.531Z,11.02
2023-01-17T17:12:13.405Z,14.73
2023-01-17T17:15:15.271Z,8.32
2023-01-17T17:18:18.091Z,14.27
2023-01-17T17:21:19.945Z,10.68
2023-01-17T17:24:21.918Z,14.40
2023-01-17T17:27:26.484Z,13.13
2023-01-17T17:30:28.424Z,11.32
2023-01-17T17:33:30.073Z,11.90
2023-01-17T17:36:32.011Z,11.35
2023-01-17T17:39:34.088Z,11.00
2023-01-17T17:42:35.776Z,10.68
2023-01-17T17:45:38.214Z,12.77
2023-01-17T17:48:40.085Z,10.68
2023-01-17T17:51:42.075Z,13.73
2023-01-17T17:54:43.879Z,12.70
2023-01-17T17:57:46.067Z,13.70
2023-01-17T18:00:48.523Z,15.35
2023-01-17T18:03:55.929Z,11.60
2023-01-17T18:06:58.075Z,14.00
2023-01-17T18:09:59.857Z,14.80
2023-01-17T18:13:01.618Z,13.73
2023-01-17T18:16:07.770Z,12.10
2023-01-17T18:19:18.984Z,11.75
2023-01-17T18:22:20.564Z,12.13
2023-01-17T18:25:23.344Z,12.77
2023-01-17T18:28:25.229Z,13.10
2023-01-17T18:31:28.746Z,10.95
2023-01-17T18:34:30.872Z,15.75
2023-01-17T18:37:33.219Z,10.75
2023-01-17T18:40:35.251Z,8.85
2023-01-17T18:43:37.237Z,7.88
2023-01-17T18:46:40.389Z,10.95
2023-01-17T18:49:42.605Z,8.68
2023-01-17T18:52:46.981Z,5.53
2023-01-17T18:55:57.163Z,8.95
2023-01-17T18:58:59.015Z,10.07
2023-01-17T19:02:01.143Z,10.20
2023-01-17T19:05:05.564Z,13.68
2023-01-17T19:08:07.643Z,13.13
2023-01-17T19:11:10.076Z,11.20
2023-01-17T19:14:12.938Z,9.95
2023-01-17T19:17:14.754Z,10.18
2023-01-17T19:20:17.017Z,8.48
2023-01-17T19:23:18.681Z,9.30
2023-01-17T19:26:27.201Z,14.70
2023-01-17T19:29:29.318Z,12.10
2023-01-17T19:32:30.962Z,9.93
2023-01-17T19:35:33.707Z,6.13
2023-01-17T19:38:36.855Z,6.95
2023-01-17T19:41:43.002Z,6.53
2023-01-17T19:44:45.098Z,9.48
2023-01-17T19:47:47.002Z,15.57
2023-01-17T19:50:48.854Z,9.45
2023-01-17T19:53:50.830Z,8.77
2023-01-17T19:56:52.419Z,9.65
2023-01-17T19:59:54.606Z,10.27
2023-01-17T20:02:56.805Z,13.32
2023-01-17T20:05:59.279Z,13.20
2023-01-17T20:09:01.204Z,11.15
2023-01-17T20:12:02.952Z,9.95
2023-01-17T20:15:06.586Z,10.63
2023-01-17T20:18:08.217Z,6.85
2023-01-17T20:21:24.238Z,8.85
2023-01-17T20:24:26.189Z,4.95
2023-01-17T20:27:28.378Z,5.95
2023-01-17T20:30:32.122Z,9.48
2023-01-17T20:33:35.196Z,8.63
2023-01-17T20:36:38.016Z,10.57
2023-01-17T20:39:39.749Z,12.55
2023-01-17T20:42:41.649Z,7.05
2023-01-17T20:45:47.161Z,6.25
2023-01-17T20:48:52.607Z,12.98
2023-01-17T20:51:55.408Z,7.57
2023-01-17T20:54:57.040Z,10.02
2023-01-17T20:57:59.791Z,5.50
2023-01-17T21:01:02.233Z,7.50
2023-01-17T21:04:05.572Z,5.95
2023-01-17T21:07:07.176Z,12.45
2023-01-17T21:10:09.609Z,8.80
2023-01-17T21:13:11.326Z,9.38
2023-01-17T21:16:14.386Z,8.07
2023-01-17T21:19:16.079Z,8.85
2023-01-17T21:22:18.007Z,5.00
2023-01-17T21:25:19.729Z,7.88
2023-01-17T21:28:22.559Z,5.50
2023-01-17T21:31:30.548Z,7.32
2023-01-17T21:34:33.536Z,8.05
2023-01-17T21:37:35.314Z,9.35
2023-01-17T21:40:36.951Z,8.05
2023-01-17T21:43:38.689Z,8.48
2023-01-17T21:46:41.063Z,6.90
2023-01-17T21:49:42.738Z,8.10
2023-01-17T21:52:46.563Z,6.38
2023-01-17T21:56:07.459Z,9.13
2023-01-17T21:59:09.115Z,7.25
2023-01-17T22:02:10.944Z,8.32
2023-01-17T22:05:13.703Z,7.43
2023-01-17T22:08:15.478Z,8.57
2023-01-17T22:11:20.283Z,10.63
2023-01-17T22:14:22.426Z,10.88
2023-01-17T22:17:24.264Z,7.93
2023-01-17T22:20:26.163Z,5.18
2023-01-17T22:23:28.892Z,8.65
2023-01-17T22:26:31.565Z,7.43
2023-01-17T22:29:33.954Z,5.20
2023-01-17T22:32:35.552Z,8.65
2023-01-17T22:35:37.240Z,9.70
2023-01-17T22:38:40.547Z,8.98
2023-01-17T22:41:42.184Z,11.85
2023-01-17T22:44:44.000Z,9.20
2023-01-17T22:47:45.811Z,8.65
2023-01-17T22:50:48.001Z,11.48
2023-01-17T22:53:52.832Z,7.85
2023-01-17T22:56:54.618Z,6.35
2023-01-17T22:59:56.435Z,8.15
2023-01-17T23:02:58.538Z,7.75
2023-01-17T23:06:20.791Z,8.02
2023-01-17T23:09:22.643Z,7.53
2023-01-17T23:12:24.330Z,8.07
2023-01-17T23:15:44.945Z,9.38
2023-01-17T23:19:08.170Z,8.25
2023-01-17T23:22:21.852Z,9.32
2023-01-17T23:25:23.504Z,9.43
2023-01-17T23:28:25.085Z,6.35
2023-01-17T23:31:26.639Z,9.02
2023-01-17T23:34:28.712Z,10.45
2023-01-17T23:37:49.819Z,7.72
2023-01-17T23:44:23.423Z,7.68
2023-01-17T23:47:25.289Z,8.43
2023-01-17T23:50:26.973Z,14.73
2023-01-17T23:53:28.789Z,7.85
2023-01-17T23:56:30.777Z,11.50
2023-01-17T23:59:32.964Z,6.53
